Nearby METAR Reports

 

EBAW - Antwerp/Deurne, Belgium
Distance from station: PdPdWs 9km
Aktualizacja: 24/07/2024 00:50
Pochmurno
Pochmurno
 Wiatr z PnPnZd
Wiatr: PnPnZd 15 km/h
Temperatura: 17°C
Punkt Rosy: 13°C
Wilgotność: 77%
Ciśnienie: 1021 hPa
Clouds: Pochmurno
Visibility: 10 km
Cloud details: Few Clouds 640 m
Pochmurno 853 m
2024/07/23 22:50 EBAW 232250Z AUTO 33008KT 9999 // FEW021/// OVC028/// 17/13 Q1021
EHWO - Woensdrecht Rnla, Netherlands
Distance from station: PnPnZd 20km
Aktualizacja: 24/07/2024 01:04
Pochmurno
Pochmurno
 Wiatr z ZdPnZd
Wiatr: ZdPnZd 11 km/h
Temperatura: 17°C
Punkt Rosy: 14°C
Wilgotność: 83%
Ciśnienie: 1021 hPa
Clouds: Pochmurno
Visibility: 10 km
Cloud details: Few Clouds 366 m
Częściowe zachmurzenie 518 m
Pochmurno 1097 m
2024/07/23 23:04 EHWO 232304Z AUTO 29006KT 240V360 9999 FEW012 SCT017 OVC036 17/14 Q1021 BLU
 
EBBR - Brussels Nationa, Belgium
Distance from station: Pd 43km
Aktualizacja: 24/07/2024 00:50
Przeważnie pochmurno
Przeważnie pochmurno
 Wiatr z ZdPnZd
Wiatr: ZdPnZd 15 km/h
Temperatura: 16°C
Punkt Rosy: 14°C
Wilgotność: 88%
Ciśnienie: 1022 hPa
Clouds: Przeważnie pochmurno
Visibility: 10 km
Cloud details: Przeważnie pochmurno 823 m
2024/07/23 22:50 EBBR 232250Z 29008KT 9999 BKN027 16/14 Q1022 NOSIG
EHGR - Gilze-Rijen Rnla, Netherlands
Distance from station: PnWs 47km
Aktualizacja: 24/07/2024 00:55
Pochmurno
Pochmurno
 Wiatr z ZdPnZd
Wiatr: ZdPnZd 13 km/h
Temperatura: 16°C
Punkt Rosy: 14°C
Wilgotność: 88%
Ciśnienie: 1020 hPa
Clouds: Pochmurno
Visibility: 10 km
Cloud details: Pochmurno 1067 m
2024/07/23 22:55 EHGR 232255Z AUTO 30007KT 9999 OVC035 16/14 Q1020 BLU
 
EBDT - Schaffen, Belgium
Distance from station: WsPdWs 54km
Aktualizacja: 23/07/2024 15:25
NOT Current

 Wiatr z Zd
Wiatr: Zd 19 km/h
Temperatura: 22°C
Punkt Rosy: 14°C
Wilgotność: 61%
Ciśnienie: 1016 hPa
Visibility: 10 km
2024/07/23 13:25 EBDT 231325Z AUTO 26010KT 9999 /// 22/14 Q1016 BLU
EHFS - Vlissingen, Netherlands
Distance from station: ZdPnZd 60km
Aktualizacja: 24/07/2024 00:55
Przeważnie pochmurno
Przeważnie pochmurno
 Wiatr z PnZd
Wiatr: PnZd 11 km/h
Temperatura: 16°C
Punkt Rosy: 14°C
Wilgotność: 88%
Ciśnienie: 1021 hPa
Clouds: Przeważnie pochmurno
Visibility: 10 km
Cloud details: Przeważnie pochmurno 884 m
2024/07/23 22:55 EHFS 232255Z AUTO 31006KT 9999 BKN029/// 16/14 Q1021
 
EBBE - Beauvechain (baf, Belgium
Distance from station: PdPdWs 64km
Aktualizacja: 24/07/2024 01:03
Pochmurno
Pochmurno
 Wiatr z Zd
Wiatr: Zd 7 km/h
Temperatura: 15°C
Punkt Rosy: 15°C
Wilgotność: 100%
Ciśnienie: 1021 hPa
Clouds: Pochmurno
Visibility: 10 km
Cloud details: Częściowe zachmurzenie 701 m
Pochmurno 823 m
2024/07/23 23:03 EBBE 232303Z AUTO 26004KT 9999 SCT023/// OVC027/// 15/15 Q1021 WHT
EHEH - Eindhoven Rnlafb, Netherlands
Distance from station: WsPnWs 69km
Aktualizacja: 24/07/2024 00:55
Pochmurno
Pochmurno
 Wiatr z Zd
Wiatr: Zd 11 km/h
Temperatura: 17°C
Punkt Rosy: 14°C
Wilgotność: 83%
Ciśnienie: 1020 hPa
Clouds: Pochmurno
Visibility: 10 km
Cloud details: Pochmurno 945 m
2024/07/23 22:55 EHEH 232255Z AUTO 26006KT 240V310 9999 OVC031 17/14 Q1020 BLU
 
EBBL - Kleine-Brogel(Ba, Belgium
Distance from station: Ws 74km
Aktualizacja: 24/07/2024 00:55
Pochmurno
Pochmurno
 Wiatr z Zd
Wiatr: Zd 6 km/h
Temperatura: 16°C
Punkt Rosy: 15°C
Wilgotność: 94%
Ciśnienie: 1020 hPa
Clouds: Pochmurno
Visibility: 10 km
Cloud details: Pochmurno 853 m
2024/07/23 22:55 EBBL 232255Z AUTO 26003KT 9999 OVC028/// 16/15 Q1020 BLU
EHRD - Rotterdam Airpor, Netherlands
Distance from station: Pn 75km
Aktualizacja: 24/07/2024 00:55
Lekki deszcz, Przeważnie pochmurno
Lekki deszcz, Przeważnie pochmurno
 Wiatr z PnZd
Wiatr: PnZd 9 km/h
Temperatura: 17°C
Punkt Rosy: 15°C
Wilgotność: 88%
Ciśnienie: 1020 hPa
Podsumowanie: Lekki deszcz
Clouds: Przeważnie pochmurno
Visibility: 10 km
Cloud details: Few Clouds 427 m
Częściowe zachmurzenie 518 m
Przeważnie pochmurno 671 m
2024/07/23 22:55 EHRD 232255Z AUTO 31005KT 250V010 9999 -RA FEW014/// SCT017/// BKN022/// 17/15 Q1020 TEMPO BKN014
 
EHSC - Goeree Le Sea, Netherlands
Distance from station: PnZd 89km
Aktualizacja: 24/07/2024 00:55

 Wiatr z PnZd
Wiatr: PnZd 31 km/h
Temperatura: 17°C
Punkt Rosy: 14°C
Wilgotność: 83%
Ciśnienie: 1021 hPa
Visibility: 10 km
2024/07/23 22:55 EHSC 232255Z AUTO 32017KT 9999 ///////// 17/14 Q1021 W19/H12
EBCI - Charleroi/Gossel, Belgium
Distance from station: Pd 90km
Aktualizacja: 24/07/2024 00:50
Przeważnie pochmurno
Przeważnie pochmurno
 Wiatr z Zd
Wiatr: Zd 6 km/h
Temperatura: 15°C
Punkt Rosy: 14°C
Wilgotność: 94%
Ciśnienie: 1022 hPa
Clouds: Przeważnie pochmurno
Visibility: 10 km
Cloud details: Few Clouds 244 m
Przeważnie pochmurno 792 m
2024/07/23 22:50 EBCI 232250Z 28003KT 230V320 9999 FEW008 BKN026 15/14 Q1022 NOSIG
 
EBCV - Chievres Ab, Belgium
Distance from station: PdPdZd 90km
Aktualizacja: 24/07/2024 00:55
Przeważnie pochmurno
Przeważnie pochmurno
 Wiatr z PnZd
Wiatr: PnZd 6 km/h
Temperatura: 14°C
Punkt Rosy: 13°C
Wilgotność: 94%
Ciśnienie: 1022 hPa
Clouds: Przeważnie pochmurno
Visibility: 10 km
Cloud details: Few Clouds 2743 m
Przeważnie pochmurno 3353 m
Przeważnie pochmurno 3658 m
2024/07/23 22:55 EBCV 232255Z AUTO 32003KT 9999 FEW090/// BKN110/// BKN120/// 14/13 Q1022 BLU
EHVK - Volkel Rnlafb, Netherlands
Distance from station: WsPnWs 97km
Aktualizacja: 24/07/2024 00:55
Pochmurno
Pochmurno
 Wiatr z ZdPdZa
Wiatr: ZdPdZa 9 km/h
Temperatura: 14°C
Punkt Rosy: 14°C
Wilgotność: 100%
Ciśnienie: 1020 hPa
Clouds: Pochmurno
Visibility: 10 km
Cloud details: Częściowe zachmurzenie 1006 m
Pochmurno 9144 m
2024/07/23 22:55 EHVK 232255Z AUTO 24005KT 9999 SCT033 OVC300 14/14 Q1020 BLU
 
EBLG - Bierset/Liege (c, Belgium
Distance from station: PdWs 102km
Aktualizacja: 24/07/2024 00:50
Przeważnie pochmurno
Przeważnie pochmurno
 Wiatr z PnZd
Wiatr: PnZd 7 km/h
Temperatura: 16°C
Punkt Rosy: 14°C
Wilgotność: 88%
Ciśnienie: 1021 hPa
Clouds: Przeważnie pochmurno
Visibility: 10 km
Cloud details: Few Clouds 305 m
Przeważnie pochmurno 671 m
2024/07/23 22:50 EBLG 232250Z 32004KT 220V360 9999 FEW010 BKN022 16/14 Q1021 NOSIG
EHBK - Zuid-Limburg/Bee, Netherlands
Distance from station: WsPdWs 102km
Aktualizacja: 24/07/2024 00:55
Pochmurno
Pochmurno
 Wiatr z Zd
Wiatr: Zd 7 km/h
Temperatura: 16°C
Punkt Rosy: 14°C
Wilgotność: 88%
Ciśnienie: 1021 hPa
Clouds: Pochmurno
Visibility: 10 km
Cloud details: Pochmurno 701 m
2024/07/23 22:55 EHBK 232255Z AUTO 28004KT 230V320 9999 OVC023/// 16/14 Q1021
 
EBOS - Oostende Airport, Belgium
Distance from station: Zd 108km
Aktualizacja: 24/07/2024 00:50
Częściowe zachmurzenie
Częściowe zachmurzenie
 Wiatr z Pn
Wiatr: Pn 11 km/h
Temperatura: 16°C
Punkt Rosy: 13°C
Wilgotność: 83%
Ciśnienie: 1022 hPa
Clouds: Częściowe zachmurzenie
Visibility: 10 km
Cloud details: Częściowe zachmurzenie 457 m
2024/07/23 22:50 EBOS 232250Z 36006KT 9999 SCT015 16/13 Q1022 NOSIG
EHSA - Euro Platform, Netherlands
Distance from station: PnZd 112km
Aktualizacja: 24/07/2024 00:55

 Wiatr z PnZd
Wiatr: PnZd 28 km/h
Temperatura: 16°C
Punkt Rosy: 14°C
Wilgotność: 88%
Ciśnienie: 1021 hPa
Visibility: 10 km
2024/07/23 22:55 EHSA 232255Z AUTO 31015KT 9999 ///////// 16/14 Q1021 W18/H12
 
EHAM - Amsterdam/Schiph, Netherlands
Distance from station: PnPnZd 118km
Aktualizacja: 24/07/2024 00:55
Few Clouds
Few Clouds
 Wiatr z PnZd
Wiatr: PnZd 17 km/h
Temperatura: 17°C
Punkt Rosy: 15°C
Wilgotność: 88%
Ciśnienie: 1020 hPa
Clouds: Few Clouds
Visibility: 10 km
Cloud details: Few Clouds 305 m
2024/07/23 22:55 EHAM 232255Z 31009KT 9999 FEW010 17/15 Q1020 NOSIG
ETNG - Geilenkirchen(Na, Germany
Distance from station: WsPdWs 118km
Aktualizacja: 24/07/2024 00:50
Przeważnie pochmurno
Przeważnie pochmurno
 Wiatr z Zd
Wiatr: Zd 11 km/h
Temperatura: 16°C
Punkt Rosy: 14°C
Wilgotność: 88%
Ciśnienie: 1020 hPa
Clouds: Przeważnie pochmurno
Visibility: 10 km
Cloud details: Częściowe zachmurzenie 914 m
Przeważnie pochmurno 9144 m
2024/07/23 22:50 ETNG 232250Z 28006KT 9999 SCT030 BKN300 16/14 Q1020